SVSR/SFD METAR and TAF weather

Enter ICAO airport designator
Station Type Date Time Source
SVSR METAR 2019/12/21 18:02 UTC NOAA

SVSR 211802Z AUTO 08009KT NCD 34/22 Q1011


Station Type Date Time Source
SVSR Decoded METAR 2019/12/21 18:02 UTC NOAA

San Fernando De Apure, Venezuela (SVSR) 07-54N 067-25W 48M
Dec 21, 2019 - 01:02 PM EST / 2019.12.21 1802 UTC
Wind: from the E (080 degrees) at 10 MPH (9 KT):0
Temperature: 93 F (34 C)
Heat index: 100.0 F (37.8 C):1
Dew Point: 71 F (22 C)
Relative Humidity: 49%
Pressure (altimeter): 29.85 in. Hg (1011 hPa)
ob: SVSR 211802Z AUTO 08009KT NCD 34/22 Q1011
cycle: 18

Station Type Date Time Source
SVSR TAF UTC NOAA

Error!

Example: see airport list